Time;durP1;ratioP1;P1;durP2;ratioP2;P2;SDS_P1;SDS_P2;PMS_P1;PMS_P2;Temp;Humidity;BMP_temperature;BMP_pressure;BME280_temperature;BME280_humidity;BME280_pressure;Samples;Min_cycle;Max_cycle;Signal;HPM_P1;HPM_P2
2023/09/27 00:01:35;;;;;;;5.93;4.70;;;14.90;99.90;;;;;;4877074;29;20204;-64
2023/09/27 00:04:02;;;;;;;5.63;5.03;;;14.90;99.90;;;;;;4876858;29;20233;-66
2023/09/27 00:06:29;;;;;;;7.07;5.60;;;14.90;99.90;;;;;;4863043;29;20596;-65
2023/09/27 00:08:56;;;;;;;7.13;5.27;;;14.90;99.90;;;;;;4867552;29;20521;-63
2023/09/27 00:11:23;;;;;;;5.57;4.37;;;14.90;99.90;;;;;;4861828;29;20194;-63
2023/09/27 00:13:50;;;;;;;8.27;5.50;;;14.80;99.90;;;;;;4861805;29;20718;-64
2023/09/27 00:16:18;;;;;;;7.43;5.17;;;14.50;99.90;;;;;;4857759;29;20289;-64
2023/09/27 00:18:45;;;;;;;5.50;4.90;;;14.40;99.90;;;;;;4876849;29;20229;-64
2023/09/27 00:21:12;;;;;;;6.80;5.53;;;14.40;99.90;;;;;;4865087;29;20261;-66
2023/09/27 00:23:46;;;;;;;7.67;5.87;;;14.40;99.90;;;;;;4857219;29;20552;-68
2023/09/27 00:26:15;;;;;;;6.43;5.43;;;14.30;99.90;;;;;;4860283;29;20202;-64
2023/09/27 00:28:49;;;;;;;8.27;5.23;;;14.20;99.90;;;;;;4863293;29;20221;-67
2023/09/27 00:31:16;;;;;;;7.47;5.40;;;14.20;99.90;;;;;;4870619;29;20216;-62
2023/09/27 00:33:43;;;;;;;7.67;5.50;;;14.30;99.90;;;;;;4846952;29;20295;-63
2023/09/27 00:36:11;;;;;;;7.27;5.33;;;14.40;99.90;;;;;;4874541;29;20194;-64
2023/09/27 00:38:38;;;;;;;7.20;5.30;;;14.40;99.90;;;;;;4873551;29;20982;-63
2023/09/27 00:41:06;;;;;;;6.50;5.20;;;14.30;99.90;;;;;;4858999;29;20657;-63
2023/09/27 00:43:34;;;;;;;5.97;4.90;;;14.10;99.90;;;;;;4862866;29;20204;-64
2023/09/27 00:46:04;;;;;;;10.83;5.43;;;14.10;99.90;;;;;;4870973;29;20328;-63
2023/09/27 00:48:33;;;;;;;7.00;5.70;;;14.20;99.90;;;;;;4873256;29;20317;-65
2023/09/27 00:51:01;;;;;;;6.23;5.00;;;14.30;99.90;;;;;;4871340;29;20885;-64
2023/09/27 00:53:32;;;;;;;5.67;4.87;;;14.20;99.90;;;;;;4872345;29;20246;-63
2023/09/27 00:55:59;;;;;;;10.70;5.57;;;14.00;99.90;;;;;;4870254;29;20592;-66
2023/09/27 00:58:30;;;;;;;7.73;5.37;;;14.00;99.90;;;;;;4877229;29;20280;-66
2023/09/27 01:00:58;;;;;;;7.30;4.97;;;14.10;99.90;;;;;;4859615;29;20209;-67
2023/09/27 01:03:25;;;;;;;9.57;5.70;;;14.20;99.90;;;;;;4859030;29;20220;-67
2023/09/27 01:05:54;;;;;;;7.93;5.73;;;14.20;99.90;;;;;;4875218;29;20208;-66
2023/09/27 01:08:21;;;;;;;5.73;5.13;;;14.30;99.90;;;;;;4853850;29;20232;-66
2023/09/27 01:10:48;;;;;;;5.93;5.07;;;14.20;99.90;;;;;;4854409;29;20210;-67
2023/09/27 01:13:15;;;;;;;11.37;5.37;;;14.20;99.90;;;;;;4857688;29;20254;-67
2023/09/27 01:15:42;;;;;;;8.20;5.77;;;14.10;99.90;;;;;;4866431;29;20247;-68
2023/09/27 01:18:10;;;;;;;8.03;5.60;;;14.10;99.90;;;;;;4882652;29;20208;-66
2023/09/27 01:20:40;;;;;;;6.73;5.20;;;14.10;99.90;;;;;;4859951;29;20212;-68
2023/09/27 01:23:07;;;;;;;5.90;4.93;;;14.10;99.90;;;;;;4859180;29;20205;-68
2023/09/27 01:25:39;;;;;;;6.67;5.23;;;14.00;99.90;;;;;;4864946;29;20221;-65
2023/09/27 01:28:07;;;;;;;5.93;4.80;;;14.00;99.90;;;;;;4864039;29;20214;-65
2023/09/27 01:30:36;;;;;;;5.03;4.47;;;13.90;99.90;;;;;;4868711;29;20213;-65
2023/09/27 01:33:06;;;;;;;6.27;5.13;;;13.90;99.90;;;;;;4867787;29;20224;-66
2023/09/27 01:35:36;;;;;;;6.57;5.20;;;13.90;99.90;;;;;;4876575;29;20254;-65
2023/09/27 01:38:04;;;;;;;6.03;5.07;;;13.90;99.90;;;;;;4865429;29;20201;-63
2023/09/27 01:40:35;;;;;;;5.57;5.07;;;13.90;99.90;;;;;;4873403;29;20251;-63
2023/09/27 01:43:03;;;;;;;8.20;5.67;;;14.00;99.90;;;;;;4856598;29;20631;-63
2023/09/27 01:45:31;;;;;;;5.03;4.53;;;14.00;99.90;;;;;;4872150;29;20261;-67
2023/09/27 01:47:59;;;;;;;5.30;4.77;;;13.90;99.90;;;;;;4871801;29;20281;-64
2023/09/27 01:50:27;;;;;;;7.77;5.07;;;13.90;99.90;;;;;;4866906;29;20218;-66
2023/09/27 01:52:56;;;;;;;6.13;4.33;;;13.90;99.90;;;;;;4875277;29;20194;-65
2023/09/27 01:55:24;;;;;;;7.53;4.03;;;13.90;99.90;;;;;;4869347;29;20558;-66
2023/09/27 01:57:52;;;;;;;6.17;3.90;;;13.90;99.90;;;;;;4861865;29;20227;-67
2023/09/27 02:04:19;;;;;;;7.30;5.27;;;14.00;99.90;;;;;;4879042;29;20225;-67
2023/09/27 02:06:47;;;;;;;10.73;6.80;;;14.00;99.90;;;;;;4861657;29;20210;-63
2023/09/27 02:09:15;;;;;;;12.50;8.07;;;14.00;99.90;;;;;;4867241;29;20229;-63
2023/09/27 02:11:42;;;;;;;10.47;7.23;;;14.00;99.90;;;;;;4860910;29;20710;-63
2023/09/27 02:14:09;;;;;;;8.13;6.20;;;14.00;99.90;;;;;;4876127;29;20270;-63
2023/09/27 02:16:36;;;;;;;8.10;5.40;;;14.00;99.90;;;;;;4864285;29;20633;-65
2023/09/27 02:19:04;;;;;;;11.87;7.60;;;14.00;99.90;;;;;;4880232;29;20535;-64
2023/09/27 02:21:32;;;;;;;9.37;6.93;;;13.90;99.90;;;;;;4868053;29;20194;-63
2023/09/27 02:23:59;;;;;;;6.23;5.07;;;13.90;99.90;;;;;;4871032;29;20197;-63
2023/09/27 02:26:26;;;;;;;12.37;8.30;;;13.90;99.90;;;;;;4893506;29;20206;-68
2023/09/27 02:28:54;;;;;;;19.03;10.30;;;13.90;99.90;;;;;;4890730;29;20234;-68
2023/09/27 02:31:21;;;;;;;7.67;5.13;;;13.90;99.90;;;;;;4889993;29;20205;-68
2023/09/27 02:33:49;;;;;;;12.60;7.07;;;14.00;99.90;;;;;;4879403;29;20694;-68
2023/09/27 02:36:16;;;;;;;11.30;7.80;;;13.90;99.90;;;;;;4859981;29;20282;-68
2023/09/27 02:38:43;;;;;;;11.43;7.57;;;13.90;99.90;;;;;;4894078;29;20233;-68
2023/09/27 02:41:10;;;;;;;8.20;6.30;;;13.90;99.90;;;;;;4871489;29;20206;-69
2023/09/27 02:43:37;;;;;;;9.17;6.07;;;13.90;99.90;;;;;;4867314;29;20328;-73
2023/09/27 02:46:04;;;;;;;5.50;4.43;;;13.90;99.90;;;;;;4864998;29;20362;-68
2023/09/27 02:48:31;;;;;;;5.37;4.37;;;13.80;99.90;;;;;;4885039;29;20209;-67
2023/09/27 02:50:58;;;;;;;6.97;5.60;;;13.60;99.90;;;;;;4893315;29;20210;-68
2023/09/27 02:53:25;;;;;;;14.13;8.50;;;13.60;99.90;;;;;;4869429;29;20222;-69
2023/09/27 02:55:52;;;;;;;8.93;5.40;;;13.50;99.90;;;;;;4879886;29;20288;-66
2023/09/27 02:58:19;;;;;;;6.73;4.87;;;13.50;99.90;;;;;;4882833;29;20201;-66
2023/09/27 03:00:46;;;;;;;6.60;5.13;;;13.40;99.90;;;;;;4896565;29;20218;-65
2023/09/27 03:03:13;;;;;;;8.40;5.17;;;13.30;99.90;;;;;;4860755;29;20208;-65
2023/09/27 03:05:41;;;;;;;7.73;4.87;;;13.20;99.90;;;;;;4869776;29;20206;-65
2023/09/27 03:08:08;;;;;;;7.77;4.97;;;13.10;99.90;;;;;;4882150;29;20614;-66
2023/09/27 03:10:38;;;;;;;9.17;5.37;;;13.10;99.90;;;;;;4870600;29;20216;-66
2023/09/27 03:13:07;;;;;;;5.40;4.33;;;13.20;99.90;;;;;;4884291;29;20218;-68
2023/09/27 03:15:35;;;;;;;4.70;3.87;;;13.20;99.90;;;;;;4885396;29;20290;-63
2023/09/27 03:18:03;;;;;;;5.27;4.30;;;13.20;99.90;;;;;;4864251;29;20207;-63
2023/09/27 03:20:31;;;;;;;7.10;4.43;;;13.10;99.90;;;;;;4865717;29;20208;-67
2023/09/27 03:22:59;;;;;;;6.10;4.57;;;13.10;99.90;;;;;;4887983;29;20682;-67
2023/09/27 03:25:26;;;;;;;7.10;4.27;;;13.00;99.90;;;;;;4877548;29;20628;-64
2023/09/27 03:27:54;;;;;;;4.57;3.80;;;13.00;99.90;;;;;;4875731;29;20226;-63
2023/09/27 03:30:22;;;;;;;9.43;5.30;;;13.00;99.90;;;;;;4867360;29;20232;-64
2023/09/27 03:32:49;;;;;;;6.30;4.73;;;12.90;99.90;;;;;;4871280;29;20707;-63
2023/09/27 03:35:16;;;;;;;6.60;5.20;;;12.90;99.90;;;;;;4875100;29;20568;-70
2023/09/27 03:37:44;;;;;;;8.63;5.27;;;12.90;99.90;;;;;;4874209;29;20201;-66
2023/09/27 03:40:13;;;;;;;5.60;5.00;;;12.90;99.90;;;;;;4883699;29;20214;-67
2023/09/27 03:42:43;;;;;;;7.47;5.10;;;12.80;99.90;;;;;;4881488;29;20511;-66
2023/09/27 03:45:12;;;;;;;7.97;5.40;;;12.80;99.90;;;;;;4887640;29;20752;-65
2023/09/27 03:47:44;;;;;;;10.37;5.33;;;12.70;99.90;;;;;;4885908;29;20226;-68
2023/09/27 03:50:14;;;;;;;9.20;5.03;;;12.70;99.90;;;;;;4860381;29;20299;-63
2023/09/27 03:52:42;;;;;;;5.13;4.27;;;12.70;99.90;;;;;;4890762;29;20341;-62
2023/09/27 03:55:10;;;;;;;8.43;5.40;;;12.60;99.90;;;;;;4888092;29;20687;-69
2023/09/27 03:57:39;;;;;;;5.70;5.07;;;12.60;99.90;;;;;;4858407;29;20563;-62
2023/09/27 04:00:17;;;;;;;7.47;4.77;;;12.60;99.90;;;;;;4875144;29;20201;-63
2023/09/27 04:02:47;;;;;;;8.87;6.23;;;12.60;99.90;;;;;;4887594;29;20285;-63
2023/09/27 04:05:15;;;;;;;6.90;5.03;;;12.60;99.90;;;;;;4873638;29;20201;-62
2023/09/27 04:07:42;;;;;;;5.93;5.20;;;12.60;99.90;;;;;;4875603;29;20206;-63
2023/09/27 04:10:11;;;;;;;7.40;5.60;;;12.70;99.90;;;;;;4870906;29;20246;-63
2023/09/27 04:12:38;;;;;;;7.23;5.00;;;12.70;99.90;;;;;;4869772;29;20198;-63
2023/09/27 04:15:08;;;;;;;6.13;4.87;;;12.70;99.90;;;;;;4876544;29;20225;-63
2023/09/27 04:17:39;;;;;;;6.17;4.63;;;12.70;99.90;;;;;;4872333;29;20315;-63
2023/09/27 04:20:14;;;;;;;6.27;4.40;;;12.60;99.90;;;;;;4880123;29;20202;-63
2023/09/27 04:22:47;;;;;;;5.77;4.80;;;12.60;99.90;;;;;;4858713;29;20356;-63
2023/09/27 04:25:16;;;;;;;8.50;5.27;;;12.50;99.90;;;;;;4858759;29;20212;-65
2023/09/27 04:27:46;;;;;;;6.77;5.10;;;12.50;99.90;;;;;;4874771;29;20296;-64
2023/09/27 04:30:19;;;;;;;6.47;5.00;;;12.50;99.90;;;;;;4865326;29;20271;-64
2023/09/27 04:32:50;;;;;;;6.10;4.87;;;12.50;99.90;;;;;;4863615;29;20236;-62
2023/09/27 04:35:19;;;;;;;6.17;4.73;;;12.50;99.90;;;;;;4867819;29;20775;-62
2023/09/27 04:37:46;;;;;;;8.87;4.77;;;12.50;99.90;;;;;;4859770;29;20210;-62
2023/09/27 04:40:14;;;;;;;8.63;5.53;;;12.40;99.90;;;;;;4855152;29;20274;-62
2023/09/27 04:42:45;;;;;;;7.73;5.07;;;12.40;99.90;;;;;;4863497;29;20201;-63
2023/09/27 04:45:13;;;;;;;6.87;5.13;;;12.50;99.90;;;;;;4849505;29;20210;-62
2023/09/27 04:47:41;;;;;;;8.33;5.67;;;12.40;99.90;;;;;;4868267;29;20608;-62
2023/09/27 04:50:10;;;;;;;7.43;5.23;;;12.40;99.90;;;;;;4872370;29;20194;-62
2023/09/27 04:52:41;;;;;;;6.90;5.50;;;12.50;99.90;;;;;;4875235;29;20198;-61
2023/09/27 04:55:09;;;;;;;6.13;4.57;;;12.50;99.90;;;;;;4871416;29;20193;-61
2023/09/27 04:57:37;;;;;;;7.57;5.60;;;12.50;99.90;;;;;;4875305;29;20194;-61
2023/09/27 05:00:06;;;;;;;8.40;5.53;;;12.40;99.90;;;;;;4859080;29;20215;-62
2023/09/27 05:02:33;;;;;;;5.87;4.53;;;12.40;99.90;;;;;;4871377;29;20210;-62
2023/09/27 05:05:00;;;;;;;10.13;5.37;;;12.40;99.90;;;;;;4862534;29;20202;-61
2023/09/27 05:07:29;;;;;;;7.73;5.23;;;12.30;99.90;;;;;;4876085;29;20288;-61
2023/09/27 05:09:56;;;;;;;6.40;5.00;;;12.40;99.90;;;;;;4880179;29;20222;-62
2023/09/27 05:12:23;;;;;;;6.90;5.43;;;12.40;99.90;;;;;;4857132;29;20698;-62
2023/09/27 05:14:50;;;;;;;7.67;5.40;;;12.30;99.90;;;;;;4875557;29;20244;-64
2023/09/27 05:17:17;;;;;;;6.13;4.67;;;12.30;99.90;;;;;;4873601;29;20208;-63
2023/09/27 05:19:44;;;;;;;7.27;5.50;;;12.30;99.90;;;;;;4867347;29;20224;-62
2023/09/27 05:22:12;;;;;;;7.67;5.80;;;12.30;99.90;;;;;;4876525;29;20257;-65
2023/09/27 05:24:39;;;;;;;6.63;5.30;;;12.20;99.90;;;;;;4867957;29;20591;-65
2023/09/27 05:27:07;;;;;;;6.10;5.10;;;12.00;99.90;;;;;;4860710;29;20213;-65
2023/09/27 05:29:35;;;;;;;9.53;5.93;;;12.00;99.90;;;;;;4884019;29;20214;-66
2023/09/27 05:32:02;;;;;;;7.63;5.27;;;12.20;99.90;;;;;;4888386;29;20937;-66
2023/09/27 05:34:30;;;;;;;7.77;5.57;;;12.40;99.90;;;;;;4874244;29;20202;-66
2023/09/27 05:36:58;;;;;;;6.90;5.47;;;12.50;99.90;;;;;;4859392;29;20205;-66
2023/09/27 05:39:25;;;;;;;7.63;5.90;;;12.60;99.90;;;;;;4871033;29;20240;-66
2023/09/27 05:41:52;;;;;;;9.77;6.10;;;12.70;99.90;;;;;;4866602;29;20261;-65
2023/09/27 05:44:20;;;;;;;9.37;6.03;;;12.80;99.90;;;;;;4870951;29;20214;-66
2023/09/27 05:46:47;;;;;;;6.93;5.70;;;12.80;99.90;;;;;;4869869;29;20201;-66
2023/09/27 05:49:15;;;;;;;7.93;5.97;;;12.90;99.90;;;;;;4872414;29;20265;-66
2023/09/27 05:51:43;;;;;;;10.00;6.57;;;13.50;99.90;;;;;;4871777;29;20205;-67
2023/09/27 05:54:10;;;;;;;7.27;5.67;;;14.70;99.90;;;;;;4866192;29;20588;-66
2023/09/27 05:56:40;;;;;;;6.30;5.03;;;15.80;99.90;;;;;;4859730;29;20194;-63
2023/09/27 05:59:11;;;;;;;7.97;4.35;;;16.70;99.90;;;;;;4871535;29;20202;-63
2023/09/27 06:01:39;;;;;;;4.72;3.95;;;17.40;99.90;;;;;;4877003;29;20558;-63
2023/09/27 06:04:07;;;;;;;4.78;4.20;;;18.20;99.90;;;;;;4874032;29;20217;-63
2023/09/27 06:06:36;;;;;;;5.85;3.97;;;19.00;99.90;;;;;;4874695;29;20232;-63
2023/09/27 06:09:09;;;;;;;6.63;4.13;;;19.70;99.90;;;;;;4889559;29;20238;-63
2023/09/27 06:11:36;;;;;;;4.68;3.95;;;20.80;99.90;;;;;;4873918;29;20667;-66
2023/09/27 06:14:10;;;;;;;5.00;4.03;;;21.90;99.90;;;;;;4883584;29;20260;-67
2023/09/27 06:16:38;;;;;;;5.57;3.72;;;22.90;99.90;;;;;;4860956;29;20206;-69
2023/09/27 06:19:06;;;;;;;4.47;4.05;;;22.90;99.90;;;;;;4862014;29;20202;-63
2023/09/27 06:21:34;;;;;;;4.95;4.20;;;22.90;99.90;;;;;;4882919;29;20289;-63
2023/09/27 06:24:01;;;;;;;4.70;3.90;;;22.90;99.90;;;;;;4886510;29;20739;-63
2023/09/27 06:26:28;;;;;;;4.35;3.65;;;23.60;99.90;;;;;;4863468;29;20206;-63
2023/09/27 06:28:55;;;;;;;5.88;4.03;;;24.40;99.90;;;;;;4871541;29;20278;-64
2023/09/27 06:31:23;;;;;;;5.68;4.03;;;25.10;99.90;;;;;;4870523;29;20276;-64
2023/09/27 06:33:51;;;;;;;8.02;4.25;;;25.90;99.90;;;;;;4873044;29;20214;-64
2023/09/27 06:36:20;;;;;;;6.63;3.83;;;26.00;99.90;;;;;;4872614;29;20276;-64
2023/09/27 06:38:48;;;;;;;4.32;3.92;;;24.50;99.90;;;;;;4869458;29;20190;-63
2023/09/27 06:41:15;;;;;;;4.13;3.55;;;24.40;99.90;;;;;;4873432;29;20201;-64
2023/09/27 06:43:43;;;;;;;4.47;4.07;;;25.30;99.90;;;;;;4865764;29;20265;-64
2023/09/27 06:46:10;;;;;;;7.05;4.05;;;26.50;99.90;;;;;;4868828;29;20563;-64
2023/09/27 06:48:37;;;;;;;6.30;4.00;;;27.80;99.90;;;;;;4868527;29;20748;-65
2023/09/27 06:51:05;;;;;;;4.60;4.20;;;28.00;99.90;;;;;;4869456;29;20682;-65
2023/09/27 06:53:33;;;;;;;4.93;4.03;;;28.70;99.90;;;;;;4868014;29;20206;-67
2023/09/27 06:56:02;;;;;;;6.93;4.68;;;29.50;99.90;;;;;;4890702;29;21417;-68
2023/09/27 06:58:30;;;;;;;4.53;4.10;;;30.60;99.90;;;;;;4893345;29;20201;-68
2023/09/27 07:00:57;;;;;;;6.57;4.70;;;31.20;99.90;;;;;;4893154;29;20197;-65
2023/09/27 07:03:25;;;;;;;4.43;4.03;;;30.80;99.90;;;;;;4869334;29;20208;-66
2023/09/27 07:05:53;;;;;;;4.60;4.20;;;31.30;99.90;;;;;;4875282;29;20689;-64
2023/09/27 07:08:20;;;;;;;3.92;3.63;;;31.60;99.90;;;;;;4895526;29;20194;-64
2023/09/27 07:10:47;;;;;;;4.20;3.80;;;32.30;99.90;;;;;;4867630;29;20200;-63
2023/09/27 07:13:15;;;;;;;4.47;4.07;;;32.30;99.90;;;;;;4861957;29;20256;-63
2023/09/27 07:15:45;;;;;;;7.05;4.35;;;31.00;99.90;;;;;;4855216;29;20779;-63
2023/09/27 07:18:13;;;;;;;5.93;4.57;;;31.60;99.90;;;;;;4842628;29;20230;-63
2023/09/27 07:20:41;;;;;;;4.90;4.32;;;32.60;99.90;;;;;;4848933;29;20202;-64
2023/09/27 07:23:14;;;;;;;6.43;4.82;;;32.50;99.90;;;;;;4839544;29;20202;-63
2023/09/27 07:25:44;;;;;;;7.22;5.00;;;31.80;99.90;;;;;;4850568;29;20206;-63
2023/09/27 07:28:11;;;;;;;4.93;4.53;;;29.20;99.90;;;;;;4828602;29;20213;-65
2023/09/27 07:30:38;;;;;;;5.10;4.38;;;28.30;99.90;;;;;;4849718;29;20218;-64
2023/09/27 07:33:11;;;;;;;4.78;4.35;;;26.60;99.90;;;;;;4832670;29;20258;-64
2023/09/27 07:35:42;;;;;;;4.30;3.90;;;27.40;99.90;;;;;;4851463;29;20534;-67
2023/09/27 07:38:13;;;;;;;5.18;4.70;;;28.30;99.90;;;;;;4842676;29;20293;-64
2023/09/27 07:40:46;;;;;;;5.85;4.90;;;29.60;99.90;;;;;;4842980;29;20746;-65
2023/09/27 07:43:14;;;;;;;5.00;4.50;;;28.80;99.90;;;;;;4836347;29;20305;-64
2023/09/27 07:45:43;;;;;;;7.60;5.20;;;28.90;99.90;;;;;;4849147;29;20211;-66
2023/09/27 07:48:10;;;;;;;5.57;4.80;;;25.40;99.90;;;;;;4852803;29;20202;-65
2023/09/27 07:50:38;;;;;;;5.35;4.78;;;25.90;99.90;;;;;;4823321;29;20227;-64
2023/09/27 07:53:08;;;;;;;5.68;5.18;;;24.60;99.90;;;;;;4855945;29;20199;-64
2023/09/27 07:55:46;;;;;;;5.88;5.05;;;23.20;99.90;;;;;;4843374;29;20209;-68
2023/09/27 07:58:13;;;;;;;5.93;4.85;;;22.10;99.90;;;;;;4836226;29;20945;-67
2023/09/27 08:00:40;;;;;;;6.28;5.13;;;21.90;99.90;;;;;;4849481;29;20747;-67
2023/09/27 08:03:08;;;;;;;6.93;5.03;;;22.10;99.90;;;;;;4855119;29;20217;-67
2023/09/27 08:05:43;;;;;;;8.90;5.68;;;22.70;99.90;;;;;;4848359;29;20617;-65
2023/09/27 08:08:12;;;;;;;7.13;5.38;;;22.70;99.90;;;;;;4853991;29;20262;-65
2023/09/27 08:10:47;;;;;;;6.82;5.47;;;22.50;99.90;;;;;;4852451;29;20220;-65
2023/09/27 08:13:15;;;;;;;6.88;5.25;;;23.10;99.90;;;;;;4839050;29;20218;-65
2023/09/27 08:15:46;;;;;;;5.57;5.07;;;23.60;99.90;;;;;;4862765;29;20234;-65
2023/09/27 08:18:13;;;;;;;6.05;4.65;;;22.40;99.90;;;;;;4873810;29;23101;-65
2023/09/27 08:20:40;;;;;;;6.53;5.38;;;21.00;99.90;;;;;;4858863;29;20735;-65
2023/09/27 08:23:07;;;;;;;6.32;5.28;;;19.90;99.90;;;;;;4870040;29;20212;-65
2023/09/27 08:25:37;;;;;;;5.72;5.13;;;19.70;99.90;;;;;;4871255;29;20206;-66
2023/09/27 08:28:05;;;;;;;6.93;5.80;;;19.40;99.90;;;;;;4870973;29;20201;-65
2023/09/27 08:30:32;;;;;;;6.70;6.00;;;18.90;99.90;;;;;;4870374;29;20237;-66
2023/09/27 08:33:00;;;;;;;6.25;5.60;;;18.50;99.90;;;;;;4870865;29;20640;-66
2023/09/27 08:35:28;;;;;;;7.57;5.80;;;18.30;99.90;;;;;;4869941;29;20209;-67
2023/09/27 08:37:56;;;;;;;6.25;5.20;;;18.60;99.90;;;;;;4873624;29;20194;-66
2023/09/27 08:40:23;;;;;;;7.13;5.22;;;19.20;99.90;;;;;;4877264;29;20277;-65
2023/09/27 08:42:56;;;;;;;4.70;4.30;;;19.90;99.90;;;;;;4868727;29;20273;-66
2023/09/27 08:45:24;;;;;;;6.10;5.30;;;23.30;99.90;;;;;;4871876;29;20257;-65
2023/09/27 08:47:51;;;;;;;9.15;4.40;;;27.40;99.90;;;;;;4864432;29;20209;-69
2023/09/27 08:50:20;;;;;;;6.63;4.72;;;26.60;99.90;;;;;;4876840;29;20214;-66
2023/09/27 08:52:51;;;;;;;6.90;4.93;;;24.10;99.90;;;;;;4872369;29;20224;-67
2023/09/27 08:55:19;;;;;;;7.50;4.90;;;23.60;99.90;;;;;;4862974;29;20198;-66
2023/09/27 08:57:51;;;;;;;12.55;8.00;;;24.90;99.90;;;;;;4872513;29;20210;-66
2023/09/27 09:00:26;;;;;;;10.35;7.90;;;25.10;99.90;;;;;;4873559;29;20285;-65
2023/09/27 09:02:57;;;;;;;8.25;5.97;;;25.00;99.90;;;;;;4867451;29;20226;-66
2023/09/27 09:05:28;;;;;;;8.15;5.97;;;24.20;99.90;;;;;;4853668;29;20194;-66
2023/09/27 09:07:58;;;;;;;9.63;6.15;;;23.70;99.90;;;;;;4871160;29;20297;-66
2023/09/27 09:10:25;;;;;;;8.02;5.60;;;22.60;99.90;;;;;;4877260;29;20209;-66
2023/09/27 09:12:52;;;;;;;6.38;5.22;;;25.70;99.90;;;;;;4871739;29;20667;-66
2023/09/27 09:15:40;;;;;;;5.80;5.20;;;26.90;99.90;;;;;;4856478;29;20234;-66
2023/09/27 09:18:28;;;;;;;5.82;4.90;;;26.80;99.90;;;;;;4871332;29;20186;-68
2023/09/27 09:20:59;;;;;;;7.90;5.10;;;27.00;99.90;;;;;;4871176;29;20197;-66
2023/09/27 09:23:32;;;;;;;6.63;5.03;;;25.20;99.90;;;;;;4872641;29;20202;-66
2023/09/27 09:26:12;;;;;;;7.72;4.55;;;25.80;99.90;;;;;;4873402;29;20283;-63
2023/09/27 09:28:56;;;;;;;5.72;4.60;;;27.00;99.90;;;;;;4873961;29;20252;-63
2023/09/27 09:31:25;;;;;;;7.13;5.70;;;26.20;99.90;;;;;;4868575;29;20202;-63
2023/09/27 09:34:05;;;;;;;7.75;4.97;;;25.50;99.90;;;;;;4852620;29;20246;-63
2023/09/27 09:36:34;;;;;;;6.65;5.50;;;24.20;99.90;;;;;;4874302;29;20253;-64
2023/09/27 09:39:14;;;;;;;7.60;4.90;;;23.10;99.90;;;;;;4877933;29;20203;-63
2023/09/27 09:41:46;;;;;;;7.95;5.70;;;22.10;99.90;;;;;;4873658;29;20258;-63
2023/09/27 09:44:18;;;;;;;10.05;5.95;;;21.60;99.90;;;;;;4873774;29;20554;-63
2023/09/27 09:46:45;;;;;;;8.68;5.63;;;23.80;99.90;;;;;;4875109;29;20200;-66
2023/09/27 09:49:16;;;;;;;5.78;4.88;;;23.70;99.90;;;;;;4880284;29;20231;-63
2023/09/27 09:51:48;;;;;;;9.43;5.00;;;23.10;99.90;;;;;;4878419;29;20654;-63
2023/09/27 09:54:46;;;;;;;7.10;5.30;;;25.30;99.90;;;;;;4883530;29;20198;-63
2023/09/27 09:57:19;;;;;;;6.03;4.68;;;26.70;99.90;;;;;;4872650;29;20222;-64
2023/09/27 10:00:00;;;;;;;4.63;4.20;;;31.70;99.90;;;;;;4858971;29;20664;-64
2023/09/27 10:02:41;;;;;;;6.30;4.57;;;35.20;99.90;;;;;;4871341;29;20228;-65
2023/09/27 10:05:10;;;;;;;8.15;4.90;;;34.60;99.90;;;;;;4871859;29;20204;-64
2023/09/27 10:07:37;;;;;;;4.80;4.40;;;36.80;99.90;;;;;;4859472;29;20223;-62
2023/09/27 10:10:05;;;;;;;5.30;4.80;;;38.30;99.90;;;;;;4870004;29;20226;-64
2023/09/27 10:12:33;;;;;;;5.05;4.40;;;38.20;99.90;;;;;;4867625;29;20635;-64
2023/09/27 10:15:02;;;;;;;6.22;5.28;;;38.60;99.90;;;;;;4865792;29;20678;-64
2023/09/27 10:17:31;;;;;;;5.35;4.85;;;37.10;99.90;;;;;;4875572;29;20198;-68
2023/09/27 10:20:12;;;;;;;7.63;5.25;;;35.90;99.90;;;;;;4877017;29;20189;-67
2023/09/27 10:22:45;;;;;;;5.00;4.60;;;32.90;99.90;;;;;;4859296;29;20201;-66
2023/09/27 10:25:23;;;;;;;5.45;4.95;;;30.70;99.90;;;;;;4869965;29;20245;-66
2023/09/27 10:28:01;;;;;;;5.32;4.82;;;30.60;99.90;;;;;;4876459;29;20273;-66
2023/09/27 10:30:48;;;;;;;5.72;5.20;;;32.50;99.90;;;;;;4865433;29;20221;-66
2023/09/27 10:33:15;;;;;;;5.78;5.18;;;30.10;99.90;;;;;;4873863;29;20224;-67
2023/09/27 10:35:44;;;;;;;5.45;4.90;;;29.30;99.90;;;;;;4871336;29;20193;-67
2023/09/27 10:38:12;;;;;;;5.68;5.18;;;31.10;99.90;;;;;;4854590;29;20653;-67
2023/09/27 10:40:44;;;;;;;5.38;4.90;;;30.00;99.90;;;;;;4874471;29;20671;-66
2023/09/27 10:43:38;;;;;;;4.97;4.57;;;31.00;99.90;;;;;;4873460;29;20667;-66
2023/09/27 10:46:05;;;;;;;5.05;4.50;;;33.10;99.90;;;;;;4874185;29;20542;-66
2023/09/27 10:48:33;;;;;;;5.50;4.57;;;32.90;99.90;;;;;;4877482;29;20197;-66
2023/09/27 10:51:00;;;;;;;4.38;4.05;;;34.90;99.90;;;;;;4868358;29;20217;-66
2023/09/27 10:53:27;;;;;;;4.40;4.10;;;36.60;99.90;;;;;;4872052;29;20194;-66
2023/09/27 10:55:54;;;;;;;4.60;4.15;;;36.50;99.90;;;;;;4871187;29;21225;-66
2023/09/27 10:58:21;;;;;;;5.20;4.70;;;36.20;99.90;;;;;;4871132;29;20215;-66
2023/09/27 11:01:03;;;;;;;5.47;4.70;;;35.70;99.90;;;;;;4875073;29;20201;-66
2023/09/27 11:03:30;;;;;;;7.40;4.72;;;36.00;99.90;;;;;;4874417;29;20273;-67
2023/09/27 11:06:08;;;;;;;6.25;5.68;;;35.40;99.90;;;;;;4872662;29;20209;-63
2023/09/27 11:08:35;;;;;;;6.45;5.75;;;35.10;99.90;;;;;;4878984;29;20216;-63
2023/09/27 11:11:05;;;;;;;5.45;4.95;;;35.30;99.90;;;;;;4875950;29;20217;-64
2023/09/27 11:13:33;;;;;;;4.65;4.25;;;35.00;99.90;;;;;;4875452;29;20257;-64
2023/09/27 11:16:10;;;;;;;6.00;4.68;;;34.90;99.90;;;;;;4877716;29;20685;-64
2023/09/27 11:18:44;;;;;;;5.47;4.97;;;36.20;99.90;;;;;;4863732;29;20208;-64
2023/09/27 11:21:13;;;;;;;5.68;5.13;;;34.80;99.90;;;;;;4875922;29;20197;-64
2023/09/27 11:24:00;;;;;;;5.38;4.88;;;34.60;99.90;;;;;;4858160;29;20701;-68
2023/09/27 11:26:31;;;;;;;5.18;4.68;;;33.40;99.90;;;;;;4864316;29;20205;-62
2023/09/27 11:29:00;;;;;;;5.80;4.80;;;31.20;99.90;;;;;;4859222;29;20224;-63
2023/09/27 11:31:32;;;;;;;5.68;4.90;;;29.80;99.90;;;;;;4870961;29;20280;-63
2023/09/27 11:34:20;;;;;;;7.20;5.03;;;32.00;99.90;;;;;;4857143;29;20759;-64
2023/09/27 11:36:52;;;;;;;4.90;4.50;;;32.90;99.90;;;;;;4878869;29;20617;-66
2023/09/27 11:39:27;;;;;;;4.40;4.10;;;32.30;99.90;;;;;;4871490;29;20320;-66
2023/09/27 11:41:59;;;;;;;4.30;3.92;;;32.70;99.90;;;;;;4856753;29;20200;-64
2023/09/27 11:44:27;;;;;;;4.60;4.20;;;33.30;99.90;;;;;;4841195;29;20274;-64
2023/09/27 11:47:08;;;;;;;4.13;3.70;;;34.10;99.90;;;;;;4878463;29;20247;-63
2023/09/27 11:49:36;;;;;;;4.40;4.00;;;33.50;99.90;;;;;;4858888;29;20204;-64
2023/09/27 11:52:10;;;;;;;4.97;4.32;;;33.60;99.90;;;;;;4883021;29;20212;-64
2023/09/27 11:54:45;;;;;;;4.63;4.20;;;32.90;99.90;;;;;;4879681;29;20200;-64
2023/09/27 11:57:12;;;;;;;4.88;4.07;;;32.90;99.90;;;;;;4879055;29;20221;-64
2023/09/27 11:59:39;;;;;;;4.53;4.13;;;33.20;99.90;;;;;;4874058;29;20209;-64
2023/09/27 12:02:09;;;;;;;5.35;4.03;;;33.50;99.90;;;;;;4866598;29;20208;-64
2023/09/27 12:04:53;;;;;;;6.47;4.53;;;33.10;99.90;;;;;;4872767;29;20198;-64
2023/09/27 12:07:20;;;;;;;4.78;4.32;;;33.10;99.90;;;;;;4851061;29;20571;-66
2023/09/27 12:09:47;;;;;;;5.13;4.07;;;33.50;99.90;;;;;;4874583;29;20294;-66
2023/09/27 12:12:14;;;;;;;4.95;3.75;;;32.10;99.90;;;;;;4886828;29;20201;-66
2023/09/27 12:14:41;;;;;;;6.43;3.80;;;32.10;99.90;;;;;;4875934;29;20312;-66
2023/09/27 12:17:09;;;;;;;3.75;3.45;;;31.00;99.90;;;;;;4867033;29;20202;-65
2023/09/27 12:19:36;;;;;;;4.15;3.70;;;30.20;99.90;;;;;;4871094;29;20213;-65
2023/09/27 12:22:03;;;;;;;3.83;3.53;;;30.20;99.90;;;;;;4876192;29;20204;-66
2023/09/27 12:24:30;;;;;;;7.82;3.75;;;29.90;99.90;;;;;;4872673;29;20206;-66
2023/09/27 12:26:57;;;;;;;3.70;3.42;;;29.80;99.90;;;;;;4874968;29;20587;-65
2023/09/27 12:29:24;;;;;;;5.15;4.25;;;29.70;99.90;;;;;;4874730;29;20518;-64
2023/09/27 12:31:51;;;;;;;7.07;4.30;;;30.10;99.90;;;;;;4872908;29;20221;-64
2023/09/27 12:34:19;;;;;;;4.00;3.60;;;30.20;99.90;;;;;;4856961;29;20208;-66
2023/09/27 12:36:47;;;;;;;5.63;4.65;;;29.50;99.90;;;;;;4879688;29;20201;-66
2023/09/27 12:39:14;;;;;;;5.47;4.43;;;28.80;99.90;;;;;;4871893;29;20280;-67
2023/09/27 12:41:47;;;;;;;5.63;4.05;;;28.30;99.90;;;;;;4874956;29;20285;-66
2023/09/27 12:44:15;;;;;;;5.82;4.32;;;27.70;99.90;;;;;;4870332;29;20276;-64
2023/09/27 12:46:48;;;;;;;4.40;4.03;;;27.50;99.90;;;;;;4876399;29;20277;-64
2023/09/27 12:49:15;;;;;;;5.13;4.07;;;27.50;99.90;;;;;;4862151;29;20679;-63
2023/09/27 12:51:42;;;;;;;4.85;4.10;;;27.50;99.90;;;;;;4860635;29;20711;-65
2023/09/27 12:54:15;;;;;;;5.22;4.20;;;27.00;99.90;;;;;;4865750;29;20249;-63
2023/09/27 12:56:43;;;;;;;4.32;3.92;;;27.00;99.90;;;;;;4873564;29;20227;-63
2023/09/27 12:59:10;;;;;;;4.40;4.00;;;26.80;99.90;;;;;;4883389;29;20225;-64
2023/09/27 13:01:37;;;;;;;6.03;4.00;;;26.80;99.90;;;;;;4859602;29;20682;-63